Time;durP1;ratioP1;P1;durP2;ratioP2;P2;SDS_P1;SDS_P2;PMS_P1;PMS_P2;Temp;Humidity;BMP_temperature;BMP_pressure;BME280_temperature;BME280_humidity;BME280_pressure;Samples;Min_cycle;Max_cycle;Signal;HPM_P1;HPM_P2
2022/10/31 00:01:19;;;;;;;16.70;8.45;;;14.20;98.50;;;;;;4919864;29;20519;-68
2022/10/31 00:03:45;;;;;;;13.77;8.90;;;14.10;98.50;;;;;;4925183;29;20036;-68
2022/10/31 00:06:11;;;;;;;14.27;8.20;;;14.10;98.50;;;;;;4923603;29;20504;-67
2022/10/31 00:08:37;;;;;;;13.35;8.73;;;14.10;98.50;;;;;;4923545;29;20570;-68
2022/10/31 00:11:03;;;;;;;13.18;7.75;;;14.10;98.50;;;;;;4923667;29;20562;-68
2022/10/31 00:13:28;;;;;;;12.88;7.50;;;14.10;98.50;;;;;;4924253;29;20031;-68
2022/10/31 00:15:54;;;;;;;12.43;7.28;;;14.10;98.50;;;;;;4921011;29;20039;-68
2022/10/31 00:18:20;;;;;;;13.38;7.75;;;14.10;98.50;;;;;;4921732;29;20068;-68
2022/10/31 00:20:46;;;;;;;12.95;7.45;;;14.10;98.50;;;;;;4924567;29;20073;-67
2022/10/31 00:23:11;;;;;;;13.68;8.15;;;14.10;98.60;;;;;;4919410;29;20046;-67
2022/10/31 00:25:39;;;;;;;13.95;7.85;;;14.10;98.60;;;;;;4924779;29;20035;-68
2022/10/31 00:28:06;;;;;;;10.43;7.00;;;14.10;98.60;;;;;;4923131;29;20682;-68
2022/10/31 00:30:32;;;;;;;10.10;7.45;;;14.10;98.70;;;;;;4918522;29;20065;-68
2022/10/31 00:32:58;;;;;;;11.95;8.05;;;14.10;98.60;;;;;;4931274;29;20067;-68
2022/10/31 00:35:24;;;;;;;13.90;7.15;;;14.10;98.60;;;;;;4924683;29;20035;-67
2022/10/31 00:37:50;;;;;;;14.02;7.85;;;14.00;98.50;;;;;;4918767;29;20519;-68
2022/10/31 00:40:16;;;;;;;15.20;7.65;;;14.00;98.60;;;;;;4924212;29;20788;-68
2022/10/31 00:42:41;;;;;;;14.70;8.27;;;14.00;98.50;;;;;;4920822;29;20046;-68
2022/10/31 00:45:10;;;;;;;13.38;8.23;;;14.00;98.50;;;;;;4921665;29;20399;-68
2022/10/31 00:47:37;;;;;;;19.10;11.40;;;14.00;98.40;;;;;;4922567;29;20036;-68
2022/10/31 00:50:04;;;;;;;25.08;12.25;;;14.00;98.10;;;;;;4922904;29;20115;-68
2022/10/31 00:52:30;;;;;;;21.13;12.75;;;13.90;98.10;;;;;;4921005;29;20485;-68
2022/10/31 00:54:56;;;;;;;19.50;11.43;;;13.90;97.90;;;;;;4922497;29;20028;-68
2022/10/31 00:57:22;;;;;;;19.83;10.90;;;13.90;97.80;;;;;;4924004;29;20075;-68
2022/10/31 00:59:48;;;;;;;26.13;12.15;;;13.80;97.60;;;;;;4917150;29;20035;-68
2022/10/31 01:02:14;;;;;;;23.30;11.98;;;13.70;97.40;;;;;;4928084;29;20070;-67
2022/10/31 01:04:39;;;;;;;24.05;13.15;;;13.70;97.50;;;;;;4922900;29;20035;-68
2022/10/31 01:07:05;;;;;;;23.05;11.98;;;13.60;97.40;;;;;;4922944;29;20043;-68
2022/10/31 01:09:31;;;;;;;23.02;11.20;;;13.60;97.40;;;;;;4919537;29;20131;-68
2022/10/31 01:11:58;;;;;;;21.30;10.98;;;13.60;97.50;;;;;;4921183;29;20028;-68
2022/10/31 01:14:24;;;;;;;23.88;11.18;;;13.60;97.50;;;;;;4920039;29;20028;-68
2022/10/31 01:16:50;;;;;;;18.45;10.00;;;13.60;97.30;;;;;;4920166;29;20040;-68
2022/10/31 01:19:16;;;;;;;25.95;10.27;;;13.50;97.20;;;;;;4927738;29;20519;-68
2022/10/31 01:21:41;;;;;;;18.85;8.55;;;13.40;97.20;;;;;;4918810;29;20039;-67
2022/10/31 01:24:08;;;;;;;21.60;10.30;;;13.40;97.40;;;;;;4918780;29;20067;-68
2022/10/31 01:26:37;;;;;;;26.17;11.38;;;13.40;97.20;;;;;;4922318;29;20118;-68
2022/10/31 01:29:06;;;;;;;21.10;9.10;;;13.40;97.40;;;;;;4923238;29;20035;-67
2022/10/31 01:31:35;;;;;;;21.92;10.23;;;13.30;97.40;;;;;;4917563;29;20183;-67
2022/10/31 01:34:01;;;;;;;15.07;8.82;;;13.30;97.50;;;;;;4934585;29;20055;-72
2022/10/31 01:36:30;;;;;;;17.23;9.45;;;13.30;97.50;;;;;;4924400;29;20858;-72
2022/10/31 01:39:01;;;;;;;13.10;8.68;;;13.30;97.60;;;;;;4920123;29;20090;-72
2022/10/31 01:41:30;;;;;;;12.73;8.13;;;13.20;97.60;;;;;;4935040;29;20114;-72
2022/10/31 01:43:59;;;;;;;12.93;7.50;;;13.30;97.90;;;;;;4919439;29;20127;-72
2022/10/31 01:46:35;;;;;;;15.25;8.48;;;13.30;98.10;;;;;;4922964;29;20134;-72
2022/10/31 01:49:05;;;;;;;10.52;7.20;;;13.40;98.30;;;;;;4921922;29;20042;-72
2022/10/31 01:51:38;;;;;;;11.38;7.10;;;13.40;98.50;;;;;;4914973;29;20480;-72
2022/10/31 01:54:07;;;;;;;12.23;7.72;;;13.40;98.60;;;;;;4935755;29;20130;-72
2022/10/31 01:56:37;;;;;;;16.88;8.35;;;13.40;98.50;;;;;;4922408;29;20054;-72
2022/10/31 01:59:07;;;;;;;17.05;8.77;;;13.40;98.40;;;;;;4918029;29;20039;-72
2022/10/31 02:01:33;;;;;;;14.55;8.15;;;13.40;98.30;;;;;;4918819;29;20034;-72
2022/10/31 02:03:58;;;;;;;13.73;8.05;;;13.40;98.10;;;;;;4920053;29;20035;-72
2022/10/31 02:07:03;;;;;;;11.02;7.47;;;13.30;98.30;;;;;;4918222;29;20038;-72
2022/10/31 02:09:31;;;;;;;15.77;7.88;;;13.40;98.40;;;;;;4905887;29;20046;-72
2022/10/31 02:11:59;;;;;;;13.27;8.00;;;13.40;98.50;;;;;;4916470;29;20368;-72
2022/10/31 02:14:28;;;;;;;12.68;7.68;;;13.40;98.60;;;;;;4935690;29;20024;-72
2022/10/31 02:16:54;;;;;;;13.07;7.70;;;13.40;98.60;;;;;;4933662;29;20035;-72
2022/10/31 02:19:32;;;;;;;15.00;8.13;;;13.40;98.50;;;;;;4917130;29;20367;-72
2022/10/31 02:22:16;;;;;;;13.65;7.25;;;13.40;98.40;;;;;;4919584;29;20038;-72
2022/10/31 02:25:05;;;;;;;13.70;7.50;;;13.40;98.40;;;;;;4934615;29;20027;-72
2022/10/31 02:27:31;;;;;;;14.48;7.63;;;13.30;98.20;;;;;;4928133;29;20039;-72
2022/10/31 02:30:09;;;;;;;12.00;7.00;;;13.30;98.10;;;;;;4917168;29;20032;-72
2022/10/31 02:32:50;;;;;;;12.65;7.13;;;13.30;98.30;;;;;;4934604;29;20802;-72
2022/10/31 02:35:39;;;;;;;9.57;7.13;;;13.20;98.10;;;;;;4920275;29;20098;-72
2022/10/31 02:38:29;;;;;;;14.32;7.03;;;13.20;98.00;;;;;;4915081;29;20040;-72
2022/10/31 02:41:11;;;;;;;11.77;6.68;;;13.20;98.30;;;;;;4922443;29;20083;-72
2022/10/31 02:44:36;;;;;;;12.48;7.13;;;13.30;98.40;;;;;;4941027;29;20103;-72
2022/10/31 02:47:13;;;;;;;13.80;7.60;;;13.30;98.50;;;;;;4922017;29;20047;-72
2022/10/31 02:49:50;;;;;;;11.70;6.40;;;13.30;98.50;;;;;;4937413;29;20752;-72
2022/10/31 02:52:28;;;;;;;13.90;6.97;;;13.30;98.30;;;;;;4921962;29;20034;-72
2022/10/31 02:55:11;;;;;;;12.82;7.80;;;13.20;98.10;;;;;;4934912;28;20035;-72
2022/10/31 02:57:39;;;;;;;14.23;7.32;;;13.20;97.80;;;;;;4922107;29;20058;-72
2022/10/31 03:00:08;;;;;;;11.38;7.18;;;13.10;97.60;;;;;;4920586;29;20070;-72
2022/10/31 03:02:48;;;;;;;10.65;6.38;;;13.20;97.80;;;;;;4936556;29;20863;-72
2022/10/31 03:05:38;;;;;;;11.70;6.43;;;13.20;98.00;;;;;;4921577;29;20071;-72
2022/10/31 03:08:27;;;;;;;12.10;6.28;;;13.10;98.10;;;;;;4917266;29;20841;-72
2022/10/31 03:11:05;;;;;;;9.88;6.00;;;13.10;98.30;;;;;;4934997;29;20031;-72
2022/10/31 03:13:48;;;;;;;14.25;7.35;;;13.20;98.20;;;;;;4921115;29;20050;-72
2022/10/31 03:16:36;;;;;;;14.70;7.75;;;13.10;98.00;;;;;;4924247;29;20044;-72
2022/10/31 03:19:15;;;;;;;12.00;7.35;;;13.10;97.90;;;;;;4935155;29;20712;-72
2022/10/31 03:21:52;;;;;;;18.20;7.45;;;13.00;97.90;;;;;;4919330;29;20027;-72
2022/10/31 03:24:24;;;;;;;13.88;6.93;;;13.10;98.00;;;;;;4920091;29;20087;-72
2022/10/31 03:26:55;;;;;;;12.30;6.82;;;13.10;98.00;;;;;;4923361;29;20043;-72
2022/10/31 03:29:26;;;;;;;15.05;7.40;;;13.10;98.10;;;;;;4935826;29;20062;-72
2022/10/31 03:32:04;;;;;;;13.32;6.93;;;13.10;98.20;;;;;;4926585;29;20034;-72
2022/10/31 03:34:31;;;;;;;10.25;6.57;;;13.20;98.40;;;;;;4922541;29;20031;-72
2022/10/31 03:37:02;;;;;;;9.50;7.38;;;13.20;98.50;;;;;;4924888;29;20386;-72
2022/10/31 03:39:29;;;;;;;9.30;6.05;;;13.20;98.60;;;;;;4923372;29;20038;-72
2022/10/31 03:42:02;;;;;;;13.00;7.47;;;13.20;98.60;;;;;;4932523;29;20044;-72
2022/10/31 03:44:30;;;;;;;8.45;6.70;;;13.20;98.60;;;;;;4939477;29;20035;-72
2022/10/31 03:47:01;;;;;;;13.68;6.55;;;13.20;98.60;;;;;;4918720;29;20043;-73
2022/10/31 03:49:28;;;;;;;10.60;5.80;;;13.20;98.60;;;;;;4937114;28;20032;-72
2022/10/31 03:52:08;;;;;;;12.23;6.53;;;13.20;98.60;;;;;;4917909;29;20031;-72
2022/10/31 03:54:44;;;;;;;9.43;6.50;;;13.20;98.70;;;;;;4922692;29;20475;-72
2022/10/31 03:57:25;;;;;;;9.82;6.35;;;13.20;98.70;;;;;;4922563;29;20131;-72
2022/10/31 04:00:05;;;;;;;12.13;6.70;;;13.20;98.60;;;;;;4922431;29;20035;-72
2022/10/31 04:02:36;;;;;;;9.90;6.90;;;13.20;98.70;;;;;;4922458;29;20040;-72
2022/10/31 04:05:03;;;;;;;9.60;5.80;;;13.20;98.70;;;;;;4921150;29;20499;-72
2022/10/31 04:07:35;;;;;;;10.43;6.20;;;13.20;98.60;;;;;;4936780;29;20090;-72
2022/10/31 04:10:05;;;;;;;12.25;6.20;;;13.20;98.60;;;;;;4920626;29;21081;-72
2022/10/31 04:12:32;;;;;;;10.05;6.38;;;13.20;98.50;;;;;;4922321;29;20038;-72
2022/10/31 04:15:15;;;;;;;11.20;6.38;;;13.20;98.50;;;;;;4920249;29;20392;-72
2022/10/31 04:17:43;;;;;;;14.73;6.57;;;13.10;98.50;;;;;;4919453;29;20031;-72
2022/10/31 04:20:10;;;;;;;13.18;7.30;;;13.10;98.40;;;;;;4935423;29;20034;-72
2022/10/31 04:22:36;;;;;;;11.13;6.22;;;13.10;98.30;;;;;;4919756;29;20838;-72
2022/10/31 04:25:02;;;;;;;13.18;6.55;;;13.10;98.20;;;;;;4920940;29;20103;-72
2022/10/31 04:27:28;;;;;;;15.93;8.20;;;13.00;98.20;;;;;;4922663;29;20043;-72
2022/10/31 04:29:53;;;;;;;10.23;6.40;;;13.00;98.20;;;;;;4920947;29;20036;-72
2022/10/31 04:32:19;;;;;;;9.07;6.50;;;13.00;98.10;;;;;;4921167;29;20555;-72
2022/10/31 04:34:45;;;;;;;11.02;6.22;;;13.00;98.00;;;;;;4919714;29;20047;-72
2022/10/31 04:37:11;;;;;;;16.35;7.05;;;12.90;98.00;;;;;;4921790;29;20862;-72
2022/10/31 04:39:37;;;;;;;11.35;6.30;;;12.90;97.90;;;;;;4927519;29;20031;-72
2022/10/31 04:42:21;;;;;;;11.95;6.15;;;12.90;97.90;;;;;;4921578;29;20067;-72
2022/10/31 04:44:47;;;;;;;14.52;6.78;;;12.90;98.00;;;;;;4922620;29;20031;-72
2022/10/31 04:47:14;;;;;;;9.75;6.38;;;12.90;98.00;;;;;;4918649;29;20066;-72
2022/10/31 04:49:39;;;;;;;9.77;6.10;;;12.90;98.10;;;;;;4920520;29;20143;-72
2022/10/31 04:52:07;;;;;;;11.70;7.15;;;12.80;98.10;;;;;;4921217;29;20118;-72
2022/10/31 04:54:34;;;;;;;13.48;6.68;;;12.80;98.20;;;;;;4919714;29;20024;-72
2022/10/31 04:57:18;;;;;;;11.75;6.85;;;12.80;98.20;;;;;;4923145;29;20519;-72
2022/10/31 04:59:44;;;;;;;11.85;6.03;;;12.80;98.10;;;;;;4912211;29;20036;-72
2022/10/31 05:02:10;;;;;;;9.90;6.72;;;12.80;98.10;;;;;;4917580;29;20039;-72
2022/10/31 05:04:52;;;;;;;13.25;6.25;;;12.80;98.20;;;;;;4921417;29;20111;-72
2022/10/31 05:07:18;;;;;;;9.48;6.32;;;12.80;98.20;;;;;;4918864;29;20028;-72
2022/10/31 05:09:43;;;;;;;10.07;6.53;;;12.80;98.20;;;;;;4921314;29;20039;-72
2022/10/31 05:12:12;;;;;;;12.15;6.40;;;12.80;98.10;;;;;;4914019;29;20397;-72
2022/10/31 05:14:56;;;;;;;10.52;6.22;;;12.80;98.20;;;;;;4919096;29;20083;-72
2022/10/31 05:17:40;;;;;;;10.95;6.70;;;12.80;98.20;;;;;;4918761;29;20043;-72
2022/10/31 05:20:44;;;;;;;15.23;6.95;;;12.80;98.20;;;;;;4919871;29;20036;-72
2022/10/31 05:23:19;;;;;;;14.93;8.25;;;12.80;98.30;;;;;;4921853;29;20035;-72
2022/10/31 05:25:45;;;;;;;11.35;6.97;;;12.80;98.30;;;;;;4935044;29;20032;-72
2022/10/31 05:28:11;;;;;;;20.48;7.00;;;12.70;98.30;;;;;;4915976;29;20047;-72
2022/10/31 05:30:37;;;;;;;14.20;7.13;;;12.70;98.40;;;;;;4924117;29;20412;-72
2022/10/31 05:33:06;;;;;;;14.77;8.00;;;12.70;98.50;;;;;;4914665;29;20792;-72
2022/10/31 05:35:54;;;;;;;16.77;8.75;;;12.70;98.60;;;;;;4922992;29;20043;-72
2022/10/31 05:38:20;;;;;;;13.98;7.88;;;12.70;98.60;;;;;;4917888;29;20044;-72
2022/10/31 05:40:46;;;;;;;12.38;7.93;;;12.70;98.60;;;;;;4919454;29;20047;-72
2022/10/31 05:43:14;;;;;;;13.77;8.27;;;12.80;98.70;;;;;;4916949;29;20050;-71
2022/10/31 05:45:39;;;;;;;18.50;8.50;;;12.70;98.70;;;;;;4919082;29;20028;-72
2022/10/31 05:48:11;;;;;;;15.38;8.35;;;12.80;99.10;;;;;;4920172;29;20075;-72
2022/10/31 05:50:55;;;;;;;13.38;7.85;;;12.80;98.80;;;;;;4918741;29;20095;-74
2022/10/31 05:53:22;;;;;;;19.98;8.27;;;12.80;98.80;;;;;;4934677;29;20031;-72
2022/10/31 05:55:48;;;;;;;13.75;8.93;;;12.80;98.80;;;;;;4920046;29;20039;-71
2022/10/31 05:58:18;;;;;;;17.17;8.43;;;12.80;98.90;;;;;;4908333;29;20051;-72
2022/10/31 06:00:53;;;;;;;14.57;8.10;;;12.80;98.90;;;;;;4919808;29;20171;-72
2022/10/31 06:03:19;;;;;;;17.73;8.55;;;12.80;98.90;;;;;;4922244;29;20378;-72
2022/10/31 06:05:47;;;;;;;14.57;8.15;;;12.90;99.00;;;;;;4922398;29;20067;-72
2022/10/31 06:08:13;;;;;;;15.73;8.30;;;12.90;99.00;;;;;;4921004;29;20031;-72
2022/10/31 06:10:40;;;;;;;14.00;8.55;;;12.90;99.00;;;;;;4936609;29;20032;-72
2022/10/31 06:13:07;;;;;;;13.82;7.80;;;12.90;98.90;;;;;;4922543;29;20040;-72
2022/10/31 06:15:55;;;;;;;14.10;8.43;;;13.00;99.00;;;;;;4918812;29;20518;-68
2022/10/31 06:18:26;;;;;;;17.08;8.32;;;13.00;98.90;;;;;;4938832;29;20028;-67
2022/10/31 06:20:53;;;;;;;15.55;8.00;;;13.00;98.90;;;;;;4920019;29;20743;-67
2022/10/31 06:23:21;;;;;;;14.82;7.82;;;13.00;98.90;;;;;;4921852;29;20146;-68
2022/10/31 06:25:51;;;;;;;11.18;7.72;;;13.10;98.90;;;;;;4925093;29;20039;-67
2022/10/31 06:28:17;;;;;;;12.15;7.75;;;13.10;98.90;;;;;;4917030;29;20027;-66
2022/10/31 06:30:51;;;;;;;16.38;8.15;;;13.10;98.90;;;;;;4923607;29;20126;-67
2022/10/31 06:33:18;;;;;;;20.83;8.75;;;13.10;98.90;;;;;;4915760;29;20465;-67
2022/10/31 06:35:54;;;;;;;16.77;8.93;;;13.10;98.90;;;;;;4924083;29;20061;-67
2022/10/31 06:38:20;;;;;;;15.70;7.82;;;13.20;99.00;;;;;;4933500;29;20448;-67
2022/10/31 06:40:46;;;;;;;16.85;8.30;;;13.20;98.90;;;;;;4920381;29;20039;-66
2022/10/31 06:43:17;;;;;;;11.82;7.05;;;13.20;98.90;;;;;;4922950;29;20051;-67
2022/10/31 06:45:44;;;;;;;14.82;8.60;;;13.30;98.90;;;;;;4924841;29;20054;-73
2022/10/31 06:48:32;;;;;;;13.00;7.63;;;13.30;98.90;;;;;;4918140;29;20517;-66
2022/10/31 06:51:15;;;;;;;14.73;8.73;;;13.40;98.90;;;;;;4924137;29;20048;-67
2022/10/31 06:53:41;;;;;;;12.82;8.98;;;13.50;98.90;;;;;;4921558;29;20031;-68
2022/10/31 06:56:09;;;;;;;12.48;8.32;;;13.50;98.90;;;;;;4913575;29;20031;-68
2022/10/31 06:58:42;;;;;;;11.52;7.00;;;13.50;98.80;;;;;;4924637;29;20060;-68
2022/10/31 07:01:10;;;;;;;12.40;7.45;;;13.50;98.80;;;;;;4926574;29;20028;-68
2022/10/31 07:03:36;;;;;;;11.35;7.68;;;13.60;98.90;;;;;;4924427;29;20621;-68
2022/10/31 07:06:02;;;;;;;12.50;8.85;;;13.60;98.80;;;;;;4919017;29;20569;-68
2022/10/31 07:08:28;;;;;;;15.40;9.48;;;13.60;98.80;;;;;;4927334;29;20042;-68
2022/10/31 07:10:56;;;;;;;12.85;7.45;;;13.70;98.80;;;;;;4921724;29;20040;-68
2022/10/31 07:13:26;;;;;;;12.70;7.95;;;13.70;98.70;;;;;;4925372;29;20026;-68
2022/10/31 07:16:02;;;;;;;17.52;8.50;;;13.80;98.70;;;;;;4916579;29;20123;-72
2022/10/31 07:18:28;;;;;;;20.45;8.43;;;13.80;98.60;;;;;;4924430;29;20059;-68
2022/10/31 07:20:54;;;;;;;15.73;9.35;;;13.80;98.50;;;;;;4920630;29;20062;-71
2022/10/31 07:23:21;;;;;;;13.48;7.70;;;13.90;98.50;;;;;;4922703;29;20024;-68
2022/10/31 07:26:03;;;;;;;13.27;7.47;;;13.90;98.40;;;;;;4924463;29;20043;-69
2022/10/31 07:28:37;;;;;;;11.75;7.25;;;13.90;98.50;;;;;;4917989;29;20042;-67
2022/10/31 07:31:05;;;;;;;14.57;8.18;;;14.00;98.50;;;;;;4922326;29;20677;-67
2022/10/31 07:33:31;;;;;;;16.90;9.35;;;14.00;98.70;;;;;;4936827;28;20032;-68
2022/10/31 07:36:15;;;;;;;16.63;9.10;;;14.10;98.80;;;;;;4919901;29;20043;-68
2022/10/31 07:38:44;;;;;;;13.10;8.57;;;14.30;98.80;;;;;;4921327;29;20060;-68
2022/10/31 07:41:09;;;;;;;15.70;8.50;;;14.40;98.70;;;;;;4926899;29;21092;-68
2022/10/31 07:43:40;;;;;;;15.57;9.20;;;14.50;98.60;;;;;;4921892;29;20781;-68
2022/10/31 07:46:29;;;;;;;15.57;9.43;;;14.50;98.30;;;;;;4921624;29;20111;-67
2022/10/31 07:49:13;;;;;;;15.57;8.82;;;14.50;98.20;;;;;;4920741;29;20151;-67
2022/10/31 07:51:57;;;;;;;16.67;10.30;;;14.60;98.00;;;;;;4917216;29;20046;-67
2022/10/31 07:54:34;;;;;;;21.98;10.40;;;14.50;98.00;;;;;;4914573;29;20039;-67
2022/10/31 07:57:00;;;;;;;15.05;9.20;;;14.60;97.90;;;;;;4923495;29;20032;-67
2022/10/31 07:59:27;;;;;;;16.10;9.63;;;14.60;97.80;;;;;;4930532;29;20771;-66
2022/10/31 08:01:53;;;;;;;22.25;11.20;;;14.60;97.80;;;;;;4924488;29;20090;-67
2022/10/31 08:04:42;;;;;;;17.42;8.65;;;14.60;97.80;;;;;;4921306;29;20044;-67
2022/10/31 08:07:46;;;;;;;15.55;9.32;;;14.60;97.80;;;;;;4916655;29;20535;-74
2022/10/31 08:10:17;;;;;;;17.88;9.73;;;14.70;97.90;;;;;;4919449;29;20036;-67
2022/10/31 08:12:43;;;;;;;16.90;9.13;;;14.70;97.90;;;;;;4919649;29;20036;-74
2022/10/31 08:15:10;;;;;;;17.00;9.73;;;14.70;98.00;;;;;;4918455;29;20515;-67
2022/10/31 08:17:37;;;;;;;20.60;11.13;;;14.80;98.00;;;;;;4919275;29;20732;-67
2022/10/31 08:20:05;;;;;;;23.15;11.23;;;15.00;98.00;;;;;;4925081;29;20040;-67
2022/10/31 08:22:34;;;;;;;23.23;12.43;;;15.10;98.00;;;;;;4917515;29;20039;-67
2022/10/31 08:25:01;;;;;;;24.02;12.85;;;15.30;98.00;;;;;;4926106;29;20036;-67
2022/10/31 08:27:27;;;;;;;29.77;13.77;;;15.40;97.70;;;;;;4928895;29;20096;-67
2022/10/31 08:29:55;;;;;;;21.45;11.65;;;15.50;97.20;;;;;;4918216;29;20036;-67
2022/10/31 08:32:21;;;;;;;30.45;14.85;;;15.60;97.20;;;;;;4916290;29;20025;-68
2022/10/31 08:35:06;;;;;;;27.20;13.25;;;15.60;97.10;;;;;;4918862;29;20046;-67
2022/10/31 08:37:57;;;;;;;28.63;12.80;;;15.70;96.90;;;;;;4923658;29;20101;-67
2022/10/31 08:40:27;;;;;;;29.48;13.13;;;15.80;96.80;;;;;;4922121;29;20040;-67
2022/10/31 08:43:01;;;;;;;25.67;13.23;;;15.90;96.50;;;;;;4923175;29;20416;-67
2022/10/31 08:45:28;;;;;;;28.02;14.63;;;15.90;96.40;;;;;;4913816;29;20385;-67
2022/10/31 08:47:58;;;;;;;26.65;14.02;;;16.00;96.30;;;;;;4924394;29;20035;-67
2022/10/31 08:50:25;;;;;;;27.00;14.07;;;16.10;96.20;;;;;;4939031;29;20396;-67
2022/10/31 08:52:51;;;;;;;30.00;14.40;;;16.20;96.00;;;;;;4918572;29;20044;-67
2022/10/31 08:55:17;;;;;;;26.05;12.98;;;16.30;96.00;;;;;;4920104;29;20020;-67
2022/10/31 08:58:05;;;;;;;25.55;13.75;;;16.50;96.20;;;;;;4920813;29;20039;-68
2022/10/31 09:00:40;;;;;;;25.95;12.13;;;16.70;95.50;;;;;;4921346;29;20043;-67
2022/10/31 09:03:16;;;;;;;27.63;14.25;;;17.00;95.00;;;;;;4921068;29;20108;-68
2022/10/31 09:05:42;;;;;;;28.77;13.75;;;17.40;94.10;;;;;;4918444;29;20135;-67
2022/10/31 09:08:11;;;;;;;32.25;13.75;;;17.80;93.60;;;;;;4914819;29;20126;-68
2022/10/31 09:10:37;;;;;;;25.65;14.70;;;18.40;92.40;;;;;;4921879;29;20046;-67
2022/10/31 09:13:11;;;;;;;22.52;13.32;;;18.90;90.20;;;;;;4917531;29;20036;-68
2022/10/31 09:15:57;;;;;;;22.23;12.80;;;19.40;90.00;;;;;;4921922;29;20047;-68
2022/10/31 09:18:24;;;;;;;30.10;13.88;;;19.90;87.90;;;;;;4937572;29;20023;-68
2022/10/31 09:20:59;;;;;;;27.73;14.95;;;20.40;85.60;;;;;;4921903;29;20032;-68
2022/10/31 09:23:27;;;;;;;28.17;14.35;;;20.30;83.70;;;;;;4917537;29;20039;-68
2022/10/31 09:25:54;;;;;;;25.73;13.65;;;20.30;84.20;;;;;;4923513;29;20070;-69
2022/10/31 09:28:37;;;;;;;24.85;14.02;;;20.10;84.70;;;;;;4935692;29;20067;-67
2022/10/31 09:31:07;;;;;;;31.88;14.48;;;19.80;86.10;;;;;;4925222;29;20142;-68
2022/10/31 09:33:56;;;;;;;23.13;13.18;;;19.70;86.90;;;;;;4910991;29;20073;-67
2022/10/31 09:36:38;;;;;;;22.92;12.50;;;19.80;87.70;;;;;;4919147;29;20043;-68
2022/10/31 09:39:07;;;;;;;27.50;14.75;;;20.00;86.30;;;;;;4922126;29;20038;-67
2022/10/31 09:41:58;;;;;;;29.83;15.77;;;20.10;86.40;;;;;;4921827;29;20035;-67
2022/10/31 09:44:44;;;;;;;32.25;15.80;;;20.10;85.10;;;;;;4928170;28;20032;-68
2022/10/31 09:47:22;;;;;;;28.92;16.27;;;20.20;85.30;;;;;;4920277;29;20804;-67
2022/10/31 09:50:19;;;;;;;30.60;15.50;;;20.40;84.30;;;;;;4933174;29;20162;-68
2022/10/31 09:52:59;;;;;;;34.85;16.75;;;20.60;84.10;;;;;;4916962;29;20451;-68
2022/10/31 09:55:36;;;;;;;30.13;16.05;;;20.60;82.60;;;;;;4919616;29;20031;-68
2022/10/31 09:58:02;;;;;;;29.38;15.88;;;20.60;83.90;;;;;;4919292;29;20155;-68
2022/10/31 10:00:29;;;;;;;35.20;17.17;;;21.00;83.60;;;;;;4921234;29;20035;-67
2022/10/31 10:03:33;;;;;;;32.08;16.17;;;21.20;81.20;;;;;;4919863;29;20059;-68
2022/10/31 10:06:24;;;;;;;31.45;16.38;;;21.40;80.30;;;;;;4917031;29;20063;-67
2022/10/31 10:09:12;;;;;;;30.05;16.58;;;21.40;80.40;;;;;;4916455;29;20039;-67
2022/10/31 10:12:44;;;;;;;30.20;16.98;;;21.60;79.50;;;;;;4920578;29;20123;-67
2022/10/31 10:15:40;;;;;;;29.38;15.27;;;21.50;79.10;;;;;;4915465;29;20055;-74
2022/10/31 10:18:27;;;;;;;33.20;17.43;;;21.30;79.80;;;;;;4916655;29;20775;-67
2022/10/31 10:20:59;;;;;;;28.13;16.42;;;21.20;80.10;;;;;;4915462;29;20275;-66
2022/10/31 10:24:02;;;;;;;35.05;18.92;;;21.10;80.60;;;;;;4920653;29;20050;-67
2022/10/31 10:26:37;;;;;;;35.55;18.00;;;20.70;81.00;;;;;;4915982;29;20039;-68
2022/10/31 10:29:46;;;;;;;37.13;19.85;;;20.40;84.20;;;;;;4920654;29;20067;-67
2022/10/31 10:32:24;;;;;;;32.85;19.35;;;21.10;81.90;;;;;;4900176;29;20044;-68
2022/10/31 10:34:54;;;;;;;39.55;21.38;;;21.90;79.10;;;;;;4917463;29;20036;-67
2022/10/31 10:37:36;;;;;;;39.33;21.08;;;22.60;75.40;;;;;;4918393;29;20214;-67
2022/10/31 10:40:14;;;;;;;36.78;20.48;;;22.70;73.80;;;;;;4916489;29;20103;-67
2022/10/31 10:48:21;;;;;;;41.22;22.95;;;21.10;79.80;;;;;;4917298;29;20039;-67
2022/10/31 10:50:52;;;;;;;38.88;21.55;;;20.50;82.20;;;;;;4919125;29;20032;-67
2022/10/31 10:53:59;;;;;;;39.70;22.63;;;20.00;84.30;;;;;;4918201;29;20032;-69
2022/10/31 10:56:40;;;;;;;41.25;22.90;;;19.60;85.70;;;;;;4917470;29;20111;-70
2022/10/31 10:59:13;;;;;;;36.35;21.95;;;19.10;88.00;;;;;;4918742;29;20040;-71
2022/10/31 11:01:40;;;;;;;40.47;23.30;;;18.90;89.20;;;;;;4923032;29;20118;-67
2022/10/31 11:04:35;;;;;;;40.78;22.85;;;18.70;89.80;;;;;;4921811;29;20066;-67
2022/10/31 11:07:11;;;;;;;43.85;24.35;;;18.40;90.60;;;;;;4922274;29;20032;-67
2022/10/31 11:09:37;;;;;;;41.55;22.45;;;18.20;91.60;;;;;;4925800;29;20145;-67
2022/10/31 11:12:16;;;;;;;42.47;22.92;;;18.10;92.00;;;;;;4917054;29;20036;-67
2022/10/31 11:14:59;;;;;;;49.03;24.00;;;18.00;92.30;;;;;;4925151;29;20031;-67
2022/10/31 11:17:32;;;;;;;43.45;23.15;;;18.10;92.30;;;;;;4917456;29;20837;-67
2022/10/31 11:20:24;;;;;;;46.97;24.08;;;18.00;92.40;;;;;;4921234;29;20078;-68
2022/10/31 11:23:03;;;;;;;39.88;21.48;;;18.00;92.50;;;;;;4923823;29;20051;-68
2022/10/31 11:25:29;;;;;;;38.38;22.52;;;18.00;92.20;;;;;;4921499;29;20047;-67
2022/10/31 11:28:04;;;;;;;50.20;27.23;;;18.00;92.10;;;;;;4920796;29;20797;-69
2022/10/31 11:30:35;;;;;;;52.70;27.15;;;17.90;92.60;;;;;;4933570;28;20146;-67
2022/10/31 11:33:01;;;;;;;48.13;26.77;;;17.90;93.00;;;;;;4921826;29;20036;-67
2022/10/31 11:35:28;;;;;;;58.95;28.35;;;17.90;93.60;;;;;;4916995;29;20036;-67
2022/10/31 11:37:58;;;;;;;57.40;26.45;;;17.80;93.40;;;;;;4920380;29;20050;-67
2022/10/31 11:40:26;;;;;;;50.88;26.80;;;17.80;93.70;;;;;;4923597;29;20546;-67
2022/10/31 11:42:56;;;;;;;44.10;23.80;;;17.70;94.00;;;;;;4917537;29;20031;-67
2022/10/31 11:45:34;;;;;;;55.05;28.55;;;17.70;94.10;;;;;;4920784;29;20119;-67
2022/10/31 11:48:01;;;;;;;48.28;25.17;;;17.70;93.70;;;;;;4920449;29;20576;-72
2022/10/31 11:50:41;;;;;;;41.00;23.23;;;17.70;93.70;;;;;;4920064;29;20031;-67
2022/10/31 11:53:31;;;;;;;46.58;25.88;;;17.80;94.00;;;;;;4917840;29;20043;-68
2022/10/31 11:56:16;;;;;;;43.63;24.10;;;17.80;94.00;;;;;;4914225;29;20047;-67
2022/10/31 11:58:42;;;;;;;43.25;23.17;;;17.90;93.50;;;;;;4919661;29;20059;-67
2022/10/31 12:01:30;;;;;;;41.78;24.30;;;17.80;93.60;;;;;;4921071;29;20059;-67
2022/10/31 12:04:09;;;;;;;49.35;26.08;;;17.80;93.80;;;;;;4923296;29;20040;-67
2022/10/31 12:06:40;;;;;;;51.83;24.98;;;17.80;93.90;;;;;;4922799;29;20058;-67
2022/10/31 12:09:25;;;;;;;52.67;27.63;;;17.80;93.70;;;;;;4920230;29;20492;-67
2022/10/31 12:12:15;;;;;;;48.80;25.55;;;17.80;93.90;;;;;;4917705;29;20038;-67
2022/10/31 12:15:08;;;;;;;43.78;23.45;;;17.80;94.00;;;;;;4923197;29;20024;-67
2022/10/31 12:17:57;;;;;;;59.63;28.33;;;17.80;94.20;;;;;;4920610;29;20093;-67
2022/10/31 12:20:50;;;;;;;49.78;26.83;;;17.80;94.00;;;;;;4921766;29;20039;-67
2022/10/31 12:23:56;;;;;;;51.22;27.08;;;17.90;94.30;;;;;;4923557;29;20035;-67
2022/10/31 12:26:51;;;;;;;65.60;32.05;;;17.90;94.20;;;;;;4912492;29;20668;-68
2022/10/31 12:29:44;;;;;;;58.17;28.40;;;17.90;94.00;;;;;;4912725;29;20080;-68
2022/10/31 12:32:47;;;;;;;53.47;27.15;;;17.70;94.20;;;;;;4919777;29;20075;-68
2022/10/31 12:35:28;;;;;;;53.92;27.52;;;17.70;94.50;;;;;;4884942;29;20124;-67
2022/10/31 12:38:02;;;;;;;58.05;27.55;;;17.70;94.40;;;;;;4910268;29;20044;-68
2022/10/31 12:41:15;;;;;;;55.92;27.83;;;17.70;94.30;;;;;;4922060;29;20521;-69
2022/10/31 12:44:02;;;;;;;54.28;26.92;;;17.60;94.40;;;;;;4894299;29;20050;-68
2022/10/31 12:46:55;;;;;;;51.92;27.88;;;17.60;94.60;;;;;;4912568;29;20044;-69
2022/10/31 12:49:38;;;;;;;47.47;25.55;;;17.60;94.70;;;;;;4920599;29;20039;-68
2022/10/31 12:52:19;;;;;;;45.63;25.40;;;17.70;94.40;;;;;;4915081;29;20778;-68
2022/10/31 12:54:55;;;;;;;45.92;25.10;;;17.60;94.40;;;;;;4916779;29;20054;-68
2022/10/31 12:57:36;;;;;;;;;;;17.50;94.70;;;;;;4917630;29;20028;-68
2022/10/31 13:00:17;;;;;;;43.42;23.08;;;17.60;94.70;;;;;;4919884;28;20041;-68
2022/10/31 13:03:08;;;;;;;50.58;26.40;;;17.50;94.80;;;;;;4919687;29;20452;-68
2022/10/31 13:05:38;;;;;;;46.35;26.15;;;17.50;94.90;;;;;;4918020;29;20719;-68
2022/10/31 13:08:12;;;;;;;50.08;24.90;;;17.60;94.70;;;;;;4921179;29;20400;-68
2022/10/31 13:10:52;;;;;;;46.55;25.27;;;17.50;94.80;;;;;;4922816;29;20119;-68
2022/10/31 13:13:39;;;;;;;54.10;28.60;;;17.50;94.90;;;;;;4918405;29;20059;-68
2022/10/31 13:16:18;;;;;;;56.05;30.25;;;17.50;94.90;;;;;;4920358;29;20074;-68